createdAt,value
2022-08-30T00:00:36.526Z,96223.84
2022-08-30T00:03:07.094Z,96216.06
2022-08-30T00:05:35.119Z,96225.09
2022-08-30T00:08:02.392Z,96222.16
2022-08-30T00:10:29.826Z,96218.28
2022-08-30T00:12:58.519Z,96220.06
2022-08-30T00:15:26.602Z,96219.38
2022-08-30T00:17:54.311Z,96212.03
2022-08-30T00:20:25.817Z,96205.44
2022-08-30T00:22:53.164Z,96213.25
2022-08-30T00:25:21.024Z,96211.56
2022-08-30T00:27:48.925Z,96206.66
2022-08-30T00:30:17.662Z,96212.03
2022-08-30T00:32:44.830Z,96206.47
2022-08-30T00:35:14.978Z,96209.47
2022-08-30T00:37:43.110Z,96209.69
2022-08-30T00:40:12.096Z,96216.25
2022-08-30T00:42:39.486Z,96205.69
2022-08-30T00:45:21.067Z,96211.16
2022-08-30T00:47:48.658Z,96205.69
2022-08-30T00:50:19.487Z,96196.75
2022-08-30T00:52:50.629Z,96213.19
2022-08-30T00:55:19.528Z,96214.28
2022-08-30T00:57:50.905Z,96212.47
2022-08-30T01:00:18.314Z,96206.56
2022-08-30T01:02:45.431Z,96214.50
2022-08-30T01:05:16.252Z,96213.59
2022-08-30T01:07:43.966Z,96213.59
2022-08-30T01:10:13.399Z,96219.97
2022-08-30T01:12:42.677Z,96208.72
2022-08-30T01:15:10.900Z,96198.09
2022-08-30T01:17:38.763Z,96209.81
2022-08-30T01:20:15.704Z,96205.00
2022-08-30T01:23:04.790Z,96202.44
2022-08-30T01:25:35.192Z,96205.47
2022-08-30T01:28:08.633Z,96205.47
2022-08-30T01:30:39.061Z,96208.34
2022-08-30T01:33:08.529Z,96215.16
2022-08-30T01:35:49.380Z,96218.94
2022-08-30T01:38:18.319Z,96213.38
2022-08-30T01:40:45.501Z,96213.94
2022-08-30T01:43:14.829Z,96202.31
2022-08-30T01:45:42.587Z,96202.44
2022-08-30T01:48:12.737Z,96203.91
2022-08-30T01:50:41.721Z,96208.94
2022-08-30T01:53:13.112Z,96196.31
2022-08-30T01:55:41.513Z,96193.75
2022-08-30T01:58:09.156Z,96198.31
2022-08-30T02:00:36.273Z,96195.53
2022-08-30T02:03:03.854Z,96188.03
2022-08-30T02:05:31.639Z,96191.50
2022-08-30T02:07:59.172Z,96187.50
2022-08-30T02:10:26.787Z,96195.41
2022-08-30T02:12:53.898Z,96192.97
2022-08-30T02:15:21.129Z,96195.53
2022-08-30T02:17:48.227Z,96196.84
2022-08-30T02:20:15.404Z,96195.16
2022-08-30T02:22:47.573Z,96205.69
2022-08-30T02:25:20.689Z,96198.56
2022-08-30T02:27:48.701Z,96198.66
2022-08-30T02:30:15.888Z,96200.31
2022-08-30T02:32:43.039Z,96205.78
2022-08-30T02:35:10.145Z,96185.38
2022-08-30T02:37:37.359Z,96196.19
2022-08-30T02:40:07.494Z,96195.88
2022-08-30T02:42:34.673Z,96189.72
2022-08-30T02:45:01.941Z,96189.72
2022-08-30T02:47:29.152Z,96192.38
2022-08-30T02:49:56.232Z,96197.06
2022-08-30T02:52:27.818Z,96179.13
2022-08-30T02:54:55.303Z,96172.78
2022-08-30T02:57:22.843Z,96167.41
2022-08-30T02:59:50.094Z,96171.00
2022-08-30T03:02:17.789Z,96164.72
2022-08-30T03:04:45.038Z,96165.94
2022-08-30T03:07:12.834Z,96164.06
2022-08-30T03:09:40.722Z,96168.19
2022-08-30T03:12:09.568Z,96165.72
2022-08-30T03:14:38.069Z,96168.09
2022-08-30T03:17:12.755Z,96172.88
2022-08-30T03:19:43.990Z,96167.97
2022-08-30T03:22:12.045Z,96178.34
2022-08-30T03:24:40.176Z,96174.31
2022-08-30T03:27:08.046Z,96179.91
2022-08-30T03:29:35.696Z,96167.63
2022-08-30T03:32:03.604Z,96170.53
2022-08-30T03:34:30.768Z,96164.28
2022-08-30T03:36:58.442Z,96165.41
2022-08-30T03:39:25.628Z,96163.59
2022-08-30T03:41:53.805Z,96158.47
2022-08-30T03:44:21.488Z,96162.63
2022-08-30T03:46:49.232Z,96168.84
2022-08-30T03:49:16.550Z,96169.78
2022-08-30T03:51:43.707Z,96167.81
2022-08-30T03:54:10.944Z,96161.47
2022-08-30T03:56:38.069Z,96159.44
2022-08-30T03:59:05.379Z,96159.44
2022-08-30T04:01:32.700Z,96156.13
2022-08-30T04:03:59.941Z,96151.09
2022-08-30T04:06:28.062Z,96157.97
2022-08-30T04:08:55.205Z,96152.75
2022-08-30T04:11:22.273Z,96152.97
2022-08-30T04:13:51.745Z,96155.75
2022-08-30T04:16:19.655Z,96160.31
2022-08-30T04:18:47.273Z,96157.75
2022-08-30T04:21:14.558Z,96163.53
2022-08-30T04:23:42.432Z,96160.31
2022-08-30T04:26:09.900Z,96169.00
2022-08-30T04:28:37.028Z,96173.03
2022-08-30T04:31:11.735Z,96175.44
2022-08-30T04:33:40.382Z,96172.34
2022-08-30T04:36:09.039Z,96177.16
2022-08-30T04:38:37.552Z,96179.16
2022-08-30T04:41:14.959Z,96180.53
2022-08-30T04:43:43.510Z,96177.72
2022-08-30T04:46:11.244Z,96183.19
2022-08-30T04:48:38.731Z,96183.38
2022-08-30T04:51:07.408Z,96183.78
2022-08-30T04:53:35.141Z,96184.44
2022-08-30T04:56:06.716Z,96187.91
2022-08-30T04:58:33.949Z,96187.19
2022-08-30T05:01:01.335Z,96183.28
2022-08-30T05:03:29.617Z,96188.72
2022-08-30T05:05:56.758Z,96192.03
2022-08-30T05:08:24.951Z,96189.44
2022-08-30T05:10:52.935Z,96184.44
2022-08-30T05:13:35.249Z,96186.97
2022-08-30T05:16:06.310Z,96193.22
2022-08-30T05:18:33.689Z,96182.81
2022-08-30T05:21:09.061Z,96186.84
2022-08-30T05:23:37.946Z,96192.53
2022-08-30T05:26:14.026Z,96195.56
2022-08-30T05:28:41.856Z,96198.72
2022-08-30T05:31:25.360Z,96205.75
2022-08-30T05:33:54.116Z,96213.53
2022-08-30T05:36:24.371Z,96201.16
2022-08-30T05:38:51.767Z,96202.94
2022-08-30T05:41:20.089Z,96210.84
2022-08-30T05:43:48.481Z,96205.25
2022-08-30T05:46:19.592Z,96201.53
2022-08-30T05:48:47.389Z,96206.78
2022-08-30T05:51:17.483Z,96202.78
2022-08-30T05:53:45.911Z,96208.34
2022-08-30T05:56:15.338Z,96205.34
2022-08-30T05:58:43.506Z,96211.56
2022-08-30T06:01:26.051Z,96203.66
2022-08-30T06:03:55.583Z,96204.47
2022-08-30T06:06:23.209Z,96202.53
2022-08-30T06:08:50.592Z,96209.47
2022-08-30T06:11:20.184Z,96203.13
2022-08-30T06:13:47.691Z,96208.72
2022-08-30T06:16:17.716Z,96200.78
2022-08-30T06:18:45.602Z,96203.81
2022-08-30T06:21:22.767Z,96212.47
2022-08-30T06:23:50.939Z,96213.19
2022-08-30T06:26:18.201Z,96211.38
2022-08-30T06:28:45.534Z,96206.47
2022-08-30T06:31:15.300Z,96209.94
2022-08-30T06:33:43.019Z,96212.03
2022-08-30T06:36:14.349Z,96207.16
2022-08-30T06:38:41.838Z,96201.56
2022-08-30T06:41:11.397Z,96198.88
2022-08-30T06:43:38.616Z,96205.59
2022-08-30T06:46:11.124Z,96205.56
2022-08-30T06:48:38.395Z,96209.91
2022-08-30T06:51:06.684Z,96209.75
2022-08-30T06:53:34.584Z,96216.78
2022-08-30T06:56:05.180Z,96211.91
2022-08-30T06:58:33.249Z,96213.22
2022-08-30T07:01:00.410Z,96217.16
2022-08-30T07:03:27.590Z,96217.84
2022-08-30T07:05:57.182Z,96217.72
2022-08-30T07:08:25.498Z,96225.06
2022-08-30T07:10:53.948Z,96221.94
2022-08-30T07:13:23.895Z,96230.53
2022-08-30T07:15:51.903Z,96230.63
2022-08-30T07:18:37.895Z,96228.50
2022-08-30T07:21:12.085Z,96227.94
2022-08-30T07:23:39.865Z,96225.56
2022-08-30T07:26:09.091Z,96214.59
2022-08-30T07:28:40.714Z,96227.91
2022-08-30T07:33:40.960Z,96232.03
2022-08-30T07:36:08.835Z,96237.53
2022-08-30T07:38:36.374Z,96241.31
2022-08-30T07:41:04.172Z,96237.94
2022-08-30T07:43:33.138Z,96243.53
2022-08-30T07:46:08.173Z,96237.66
2022-08-30T07:48:35.531Z,96241.19
2022-08-30T07:51:05.554Z,96242.94
2022-08-30T07:53:32.828Z,96232.19
2022-08-30T07:56:00.691Z,96249.16
2022-08-30T07:58:32.320Z,96244.84
2022-08-30T08:01:00.200Z,96240.13
2022-08-30T08:03:27.883Z,96232.38
2022-08-30T08:05:55.552Z,96247.69
2022-08-30T08:08:23.613Z,96247.06
2022-08-30T08:10:50.760Z,96238.31
2022-08-30T08:13:17.997Z,96233.63
2022-08-30T08:15:45.486Z,96238.69
2022-08-30T08:18:13.188Z,96237.13
2022-08-30T08:20:40.658Z,96245.72
2022-08-30T08:23:08.065Z,96234.34
2022-08-30T08:25:40.566Z,96240.13
2022-08-30T08:28:07.942Z,96243.09
2022-08-30T08:30:37.393Z,96245.56
2022-08-30T08:33:06.096Z,96237.03
2022-08-30T08:35:33.361Z,96238.09
2022-08-30T08:38:00.883Z,96234.31
2022-08-30T08:40:31.193Z,96242.16
2022-08-30T08:43:11.621Z,96242.16
2022-08-30T08:46:00.166Z,96242.09
2022-08-30T08:48:59.535Z,96240.56
2022-08-30T08:51:51.374Z,96244.25
2022-08-30T08:54:44.429Z,96250.69
2022-08-30T08:57:15.303Z,96246.88
2022-08-30T08:59:44.933Z,96235.25
2022-08-30T09:02:25.042Z,96235.22
2022-08-30T09:04:58.187Z,96231.91
2022-08-30T09:07:29.782Z,96230.16
2022-08-30T09:10:00.633Z,96235.13
2022-08-30T09:12:28.348Z,96231.00
2022-08-30T09:15:12.250Z,96227.53
2022-08-30T09:18:18.911Z,96232.16
2022-08-30T09:20:49.695Z,96231.22
2022-08-30T09:23:17.482Z,96236.47
2022-08-30T09:25:53.328Z,96229.06
2022-08-30T09:28:43.389Z,96227.16
2022-08-30T09:31:30.432Z,96230.25
2022-08-30T09:34:03.635Z,96221.41
2022-08-30T09:36:51.989Z,96223.44
2022-08-30T09:39:31.340Z,96221.44
2022-08-30T09:42:18.969Z,96219.03
2022-08-30T09:44:46.332Z,96221.69
2022-08-30T09:47:28.925Z,96219.09
2022-08-30T09:50:10.029Z,96215.44
2022-08-30T09:52:58.895Z,96223.19
2022-08-30T09:55:31.998Z,96226.16
2022-08-30T10:15:21.641Z,96207.63
2022-08-30T10:18:04.717Z,96209.09
2022-08-30T10:20:42.827Z,96204.22
2022-08-30T10:23:16.901Z,96209.06
2022-08-30T10:25:53.585Z,96211.34
2022-08-30T10:28:34.923Z,96203.19
2022-08-30T10:31:07.699Z,96204.19
2022-08-30T10:33:44.633Z,96209.00
2022-08-30T10:36:14.317Z,96201.06
2022-08-30T10:38:48.381Z,96197.53
2022-08-30T10:41:41.002Z,96204.56
2022-08-30T10:44:26.719Z,96199.00
2022-08-30T10:47:23.134Z,96202.41
2022-08-30T10:50:15.583Z,96197.53
2022-08-30T10:52:58.084Z,96212.13
2022-08-30T10:55:37.485Z,96208.22
2022-08-30T10:58:06.260Z,96211.19
2022-08-30T11:00:45.734Z,96200.88
2022-08-30T11:03:44.982Z,96209.88
2022-08-30T11:06:25.026Z,96215.50
2022-08-30T11:09:01.281Z,96213.91
2022-08-30T11:11:40.988Z,96212.50
2022-08-30T11:14:11.083Z,96211.63
2022-08-30T11:16:45.865Z,96216.84
2022-08-30T11:19:24.173Z,96213.88
2022-08-30T11:22:08.247Z,96213.66
2022-08-30T11:25:02.094Z,96205.16
2022-08-30T11:27:51.355Z,96203.38
2022-08-30T11:30:24.472Z,96205.16
2022-08-30T11:33:03.129Z,96200.78
2022-08-30T11:35:55.374Z,96204.63
2022-08-30T11:38:25.488Z,96200.00
2022-08-30T11:41:09.496Z,96197.53
2022-08-30T11:43:39.806Z,96198.41
2022-08-30T11:46:27.145Z,96202.47
2022-08-30T11:49:23.452Z,96197.25
2022-08-30T11:52:27.146Z,96189.22
2022-08-30T11:55:26.805Z,96196.44
2022-08-30T11:58:19.231Z,96196.63
2022-08-30T12:00:51.416Z,96193.50
2022-08-30T12:03:20.899Z,96190.31
2022-08-30T12:06:04.507Z,96178.94
2022-08-30T12:08:34.062Z,96180.50
2022-08-30T12:11:01.499Z,96178.69
2022-08-30T12:13:34.646Z,96176.50
2022-08-30T12:16:13.802Z,96174.50
2022-08-30T12:18:47.448Z,96178.94
2022-08-30T12:21:21.384Z,96177.69
2022-08-30T12:24:03.679Z,96169.91
2022-08-30T12:26:41.249Z,96167.66
2022-08-30T12:29:18.867Z,96166.91
2022-08-30T12:31:52.557Z,96170.91
2022-08-30T12:34:41.566Z,96170.94
2022-08-30T12:37:28.289Z,96171.47
2022-08-30T12:40:07.830Z,96168.97
2022-08-30T12:42:41.153Z,96163.38
2022-08-30T12:45:15.205Z,96166.97
2022-08-30T12:47:51.140Z,96154.88
2022-08-30T12:50:23.685Z,96163.69
2022-08-30T12:53:21.789Z,96159.63
2022-08-30T12:55:55.194Z,96156.72
2022-08-30T12:58:46.658Z,96151.00
2022-08-30T13:01:19.370Z,96150.13
2022-08-30T13:04:03.365Z,96151.56
2022-08-30T13:06:43.749Z,96159.25
2022-08-30T13:09:23.781Z,96154.44
2022-08-30T13:11:51.433Z,96152.38
2022-08-30T13:14:24.393Z,96153.00
2022-08-30T13:17:07.485Z,96154.00
2022-08-30T13:19:41.172Z,96155.78
2022-08-30T13:22:39.633Z,96152.13
2022-08-30T13:25:09.576Z,96146.50
2022-08-30T13:27:38.275Z,96153.44
2022-08-30T13:30:13.333Z,96146.59
2022-08-30T13:32:42.724Z,96147.53
2022-08-30T13:35:11.324Z,96158.78
2022-08-30T13:37:49.895Z,96151.13
2022-08-30T13:40:21.015Z,96141.03
2022-08-30T13:42:49.080Z,96142.41
2022-08-30T13:48:06.501Z,96135.09
2022-08-30T13:50:33.777Z,96139.97
2022-08-30T13:53:00.939Z,96140.03
2022-08-30T13:55:28.806Z,96135.50
2022-08-30T13:57:57.445Z,96139.63
2022-08-30T14:00:26.123Z,96131.97
2022-08-30T14:02:57.357Z,96128.38
2022-08-30T14:05:49.837Z,96129.09
2022-08-30T14:11:19.153Z,96125.84
2022-08-30T14:16:37.359Z,96122.38
2022-08-30T14:19:05.731Z,96122.91
2022-08-30T14:21:33.248Z,96120.38
2022-08-30T14:24:00.535Z,96116.03
2022-08-30T14:26:32.234Z,96124.34
2022-08-30T14:28:59.559Z,96121.25
2022-08-30T14:31:26.759Z,96119.47
2022-08-30T14:33:53.966Z,96121.81
2022-08-30T14:36:21.104Z,96118.38
2022-08-30T14:38:49.534Z,96114.13
2022-08-30T14:41:17.067Z,96118.50
2022-08-30T14:43:44.335Z,96119.38
2022-08-30T14:46:12.346Z,96116.91
2022-08-30T14:48:39.579Z,96122.78
2022-08-30T14:51:14.007Z,96122.09
2022-08-30T14:53:41.316Z,96104.41
2022-08-30T14:56:19.698Z,96104.88
2022-08-30T14:58:51.692Z,96094.81
2022-08-30T15:01:19.909Z,96101.09
2022-08-30T15:03:47.170Z,96093.66
2022-08-30T15:06:14.681Z,96092.72
2022-08-30T15:08:43.469Z,96086.19
2022-08-30T15:11:18.001Z,96086.88
2022-08-30T15:13:45.968Z,96079.34
2022-08-30T15:16:24.193Z,96089.63
2022-08-30T15:18:51.789Z,96078.34
2022-08-30T15:21:28.278Z,96087.25
2022-08-30T15:23:55.574Z,96075.72
2022-08-30T15:26:24.013Z,96078.56
2022-08-30T15:28:51.639Z,96075.81
2022-08-30T15:31:21.006Z,96077.25
2022-08-30T15:33:50.452Z,96081.97
2022-08-30T15:36:17.742Z,96081.22
2022-08-30T15:38:45.879Z,96083.88
2022-08-30T15:41:13.679Z,96080.78
2022-08-30T15:43:41.438Z,96079.09
2022-08-30T15:46:31.788Z,96076.28
2022-08-30T15:49:02.330Z,96069.81
2022-08-30T15:51:30.876Z,96063.00
2022-08-30T15:54:11.595Z,96065.06
2022-08-30T15:56:39.931Z,96062.34
2022-08-30T15:59:10.087Z,96056.00
2022-08-30T16:01:37.950Z,96062.81
2022-08-30T16:04:05.155Z,96072.97
2022-08-30T16:06:37.197Z,96071.50
2022-08-30T16:09:06.530Z,96067.22
2022-08-30T16:11:34.226Z,96065.19
2022-08-30T16:14:02.188Z,96058.75
2022-08-30T16:16:31.095Z,96057.88
2022-08-30T16:18:58.374Z,96063.59
2022-08-30T16:21:28.803Z,96056.69
2022-08-30T16:23:58.858Z,96064.34
2022-08-30T16:26:27.287Z,96068.59
2022-08-30T16:28:55.556Z,96073.09
2022-08-30T16:31:23.759Z,96072.34
2022-08-30T16:33:52.646Z,96075.97
2022-08-30T16:36:22.055Z,96079.81
2022-08-30T16:38:52.626Z,96062.56
2022-08-30T16:41:23.533Z,96067.16
2022-08-30T16:43:53.346Z,96067.47
2022-08-30T16:46:27.849Z,96065.09
2022-08-30T16:48:57.952Z,96062.69
2022-08-30T16:51:27.282Z,96068.31
2022-08-30T16:53:56.214Z,96067.47
2022-08-30T16:56:25.061Z,96062.44
2022-08-30T16:58:57.771Z,96069.50
2022-08-30T17:01:29.993Z,96059.75
2022-08-30T17:03:57.127Z,96061.88
2022-08-30T17:06:24.261Z,96075.72
2022-08-30T17:08:56.016Z,96067.53
2022-08-30T17:11:24.398Z,96070.91
2022-08-30T17:13:52.138Z,96062.28
2022-08-30T17:16:22.657Z,96072.56
2022-08-30T17:18:59.628Z,96064.91
2022-08-30T17:21:31.227Z,96067.66
2022-08-30T17:24:02.099Z,96064.50
2022-08-30T17:26:35.211Z,96067.13
2022-08-30T17:29:03.871Z,96064.53
2022-08-30T17:31:31.475Z,96060.03
2022-08-30T17:34:02.939Z,96066.22
2022-08-30T17:36:36.488Z,96070.28
2022-08-30T17:39:11.395Z,96080.56
2022-08-30T17:41:48.224Z,96073.59
2022-08-30T17:44:20.394Z,96086.31
2022-08-30T17:46:47.631Z,96090.09
2022-08-30T17:49:15.188Z,96094.63
2022-08-30T17:51:44.280Z,96088.84
2022-08-30T17:54:12.914Z,96096.19
2022-08-30T17:56:41.385Z,96090.13
2022-08-30T17:59:15.996Z,96085.19
2022-08-30T18:01:44.876Z,96080.41
2022-08-30T18:04:14.892Z,96078.06
2022-08-30T18:06:47.892Z,96079.84
2022-08-30T18:09:15.054Z,96074.81
2022-08-30T18:11:42.316Z,96075.56
2022-08-30T18:14:11.389Z,96081.31
2022-08-30T18:16:49.851Z,96073.88
2022-08-30T18:19:23.885Z,96083.50
2022-08-30T18:21:51.479Z,96089.72
2022-08-30T18:24:18.906Z,96093.97
2022-08-30T18:26:46.535Z,96093.97
2022-08-30T18:29:13.902Z,96097.56
2022-08-30T18:31:41.421Z,96099.78
2022-08-30T18:34:12.253Z,96106.00
2022-08-30T18:36:40.629Z,96104.13
2022-08-30T18:39:08.864Z,96102.19
2022-08-30T18:41:42.201Z,96108.63
2022-08-30T18:44:26.834Z,96104.34
2022-08-30T18:46:56.824Z,96105.09
2022-08-30T18:49:28.664Z,96110.91
2022-08-30T18:51:55.878Z,96111.22
2022-08-30T18:54:23.873Z,96115.22
2022-08-30T18:56:51.732Z,96108.63
2022-08-30T18:59:19.097Z,96120.16
2022-08-30T19:01:47.141Z,96115.94
2022-08-30T19:04:29.520Z,96111.03
2022-08-30T19:07:02.475Z,96112.75
2022-08-30T19:09:30.348Z,96116.66
2022-08-30T19:11:57.521Z,96091.97
2022-08-30T19:14:24.612Z,96111.72
2022-08-30T19:16:56.262Z,96120.63
2022-08-30T19:19:23.806Z,96117.56
2022-08-30T19:21:51.818Z,96115.97
2022-08-30T19:24:20.213Z,96119.09
2022-08-30T19:26:48.730Z,96119.09
2022-08-30T19:29:15.935Z,96123.13
2022-08-30T19:31:43.765Z,96121.31
2022-08-30T19:34:11.994Z,96119.59
2022-08-30T19:36:39.417Z,96120.72
2022-08-30T19:39:07.398Z,96121.66
2022-08-30T19:41:34.663Z,96119.94
2022-08-30T19:44:03.257Z,96121.09
2022-08-30T19:46:32.445Z,96110.97
2022-08-30T19:49:01.086Z,96118.81
2022-08-30T19:51:28.288Z,96114.91
2022-08-30T19:53:58.761Z,96110.09
2022-08-30T19:56:26.545Z,96117.44
2022-08-30T19:58:54.155Z,96114.97
2022-08-30T20:01:32.413Z,96117.72
2022-08-30T20:04:02.019Z,96115.25
2022-08-30T20:06:30.670Z,96113.84
2022-08-30T20:08:58.353Z,96110.00
2022-08-30T20:11:28.697Z,96126.22
2022-08-30T20:13:56.140Z,96122.31
2022-08-30T20:16:28.378Z,96118.44
2022-08-30T20:19:06.516Z,96117.19
2022-08-30T20:21:34.040Z,96121.88
2022-08-30T20:24:03.324Z,96112.22
2022-08-30T20:26:34.149Z,96118.75
2022-08-30T20:29:03.079Z,96112.53
2022-08-30T20:31:30.544Z,96115.03
2022-08-30T20:33:58.041Z,96112.38
2022-08-30T20:36:25.191Z,96122.19
2022-08-30T20:38:52.785Z,96119.22
2022-08-30T20:41:20.176Z,96122.19
2022-08-30T20:43:48.808Z,96118.78
2022-08-30T20:46:19.955Z,96118.66
2022-08-30T20:48:47.801Z,96122.06
2022-08-30T20:51:18.822Z,96130.00
2022-08-30T20:53:46.121Z,96120.16
2022-08-30T20:56:16.504Z,96120.53
2022-08-30T20:58:44.810Z,96120.09
2022-08-30T21:01:13.338Z,96116.66
2022-08-30T21:03:40.969Z,96116.50
2022-08-30T21:06:08.403Z,96115.72
2022-08-30T21:08:35.515Z,96115.44
2022-08-30T21:11:02.624Z,96111.06
2022-08-30T21:13:30.716Z,96117.28
2022-08-30T21:16:03.842Z,96125.66
2022-08-30T21:18:33.896Z,96118.94
2022-08-30T21:21:12.137Z,96112.59
2022-08-30T21:23:39.925Z,96123.06
2022-08-30T21:26:08.204Z,96113.63
2022-08-30T21:28:36.235Z,96119.44
2022-08-30T21:31:12.710Z,96112.56
2022-08-30T21:33:42.719Z,96116.16
2022-08-30T21:36:29.493Z,96120.38
2022-08-30T21:39:00.702Z,96124.59
2022-08-30T21:41:30.309Z,96116.00
2022-08-30T21:43:58.145Z,96125.66
2022-08-30T21:46:27.148Z,96110.41
2022-08-30T21:48:54.591Z,96125.94
2022-08-30T21:51:21.666Z,96120.97
2022-08-30T21:53:48.797Z,96127.22
2022-08-30T21:56:21.639Z,96125.09
2022-08-30T21:58:50.329Z,96129.44
2022-08-30T22:01:18.767Z,96126.59
2022-08-30T22:03:46.603Z,96129.44
2022-08-30T22:06:14.426Z,96120.06
2022-08-30T22:08:44.909Z,96121.91
2022-08-30T22:11:19.584Z,96116.03
2022-08-30T22:13:48.624Z,96116.69
2022-08-30T22:16:16.492Z,96114.16
2022-08-30T22:18:44.508Z,96117.25
2022-08-30T22:21:15.193Z,96118.50
2022-08-30T22:23:42.721Z,96107.59
2022-08-30T22:26:10.846Z,96103.41
2022-08-30T22:28:38.265Z,96115.06
2022-08-30T22:31:08.350Z,96120.19
2022-08-30T22:33:36.090Z,96120.69
2022-08-30T22:36:08.749Z,96112.91
2022-08-30T22:38:36.457Z,96121.59
2022-08-30T22:41:03.624Z,96111.66
2022-08-30T22:43:30.896Z,96119.59
2022-08-30T22:45:58.353Z,96129.03
2022-08-30T22:48:25.571Z,96125.19
2022-08-30T22:50:52.750Z,96117.53
2022-08-30T22:53:20.092Z,96130.13
2022-08-30T22:55:47.204Z,96135.72
2022-08-30T22:58:14.343Z,96134.78
2022-08-30T23:00:46.395Z,96130.25
2022-08-30T23:03:22.166Z,96126.03
2022-08-30T23:05:49.286Z,96129.94
2022-08-30T23:08:16.437Z,96115.00
2022-08-30T23:10:44.313Z,96124.00
2022-08-30T23:13:11.498Z,96129.78
2022-08-30T23:15:38.673Z,96134.16
2022-08-30T23:18:05.824Z,96132.75
2022-08-30T23:20:33.351Z,96131.13
2022-08-30T23:23:00.505Z,96134.53
2022-08-30T23:25:52.276Z,96132.03
2022-08-30T23:28:39.217Z,96136.63
2022-08-30T23:31:31.152Z,96137.06
2022-08-30T23:34:17.336Z,96137.19
2022-08-30T23:37:02.981Z,96140.00
2022-08-30T23:39:48.843Z,96130.00
2022-08-30T23:42:34.710Z,96129.72
2022-08-30T23:45:20.000Z,96127.53
2022-08-30T23:48:05.700Z,96129.00
2022-08-30T23:50:51.490Z,96131.19
2022-08-30T23:53:36.902Z,96137.06
2022-08-30T23:56:22.562Z,96121.19
2022-08-30T23:59:07.908Z,96135.88
